createdAt,value
2018-10-16T00:01:37.863Z,16.50
2018-10-16T00:04:07.124Z,16.60
2018-10-16T00:06:35.751Z,16.60
2018-10-16T00:09:06.477Z,16.70
2018-10-16T00:11:35.247Z,16.60
2018-10-16T00:14:03.919Z,16.70
2018-10-16T00:16:32.639Z,16.60
2018-10-16T00:19:01.287Z,16.60
2018-10-16T00:21:29.920Z,16.50
2018-10-16T00:23:58.609Z,16.50
2018-10-16T00:26:27.256Z,16.50
2018-10-16T00:28:55.914Z,16.60
2018-10-16T00:31:24.571Z,16.50
2018-10-16T00:33:53.231Z,16.50
2018-10-16T00:36:21.911Z,16.50
2018-10-16T00:38:50.549Z,16.50
2018-10-16T00:41:19.192Z,16.50
2018-10-16T00:43:47.851Z,16.50
2018-10-16T00:46:16.484Z,16.50
2018-10-16T00:48:45.171Z,16.50
2018-10-16T00:51:13.815Z,16.40
2018-10-16T00:53:42.471Z,16.50
2018-10-16T00:56:11.113Z,16.50
2018-10-16T00:58:39.775Z,16.50
2018-10-16T01:01:08.519Z,16.50
2018-10-16T01:03:37.201Z,16.50
2018-10-16T01:06:05.899Z,16.60
2018-10-16T01:08:34.528Z,16.60
2018-10-16T01:11:03.324Z,16.60
2018-10-16T01:13:31.992Z,16.50
2018-10-16T01:16:00.667Z,16.50
2018-10-16T01:18:29.292Z,16.50
2018-10-16T01:20:57.927Z,16.50
2018-10-16T01:23:26.560Z,16.50
2018-10-16T01:25:55.205Z,16.50
2018-10-16T01:28:23.863Z,16.50
2018-10-16T01:30:52.552Z,16.40
2018-10-16T01:33:21.240Z,16.50
2018-10-16T01:35:49.888Z,16.50
2018-10-16T01:38:18.572Z,16.50
2018-10-16T01:40:47.208Z,16.50
2018-10-16T01:43:15.944Z,16.50
2018-10-16T01:45:44.584Z,16.50
2018-10-16T01:48:13.233Z,16.50
2018-10-16T01:50:41.868Z,16.50
2018-10-16T01:53:10.521Z,16.40
2018-10-16T01:55:39.189Z,16.40
2018-10-16T01:58:07.826Z,16.40
2018-10-16T02:00:36.508Z,16.40
2018-10-16T02:03:05.221Z,16.40
2018-10-16T02:05:33.857Z,16.40
2018-10-16T02:08:02.487Z,16.30
2018-10-16T02:10:31.136Z,16.30
2018-10-16T02:12:59.800Z,16.30
2018-10-16T02:15:28.500Z,16.30
2018-10-16T02:17:57.201Z,16.30
2018-10-16T02:20:25.880Z,16.30
2018-10-16T02:22:54.540Z,16.30
2018-10-16T02:25:23.246Z,16.30
2018-10-16T02:27:51.904Z,16.30
2018-10-16T02:30:20.569Z,16.20
2018-10-16T02:32:49.212Z,16.30
2018-10-16T02:35:17.852Z,16.30
2018-10-16T02:37:46.525Z,16.30
2018-10-16T02:40:15.165Z,16.30
2018-10-16T02:42:43.810Z,16.30
2018-10-16T02:45:12.456Z,16.40
2018-10-16T02:47:41.152Z,16.30
2018-10-16T02:50:10.910Z,16.40
2018-10-16T02:52:39.740Z,16.30
2018-10-16T02:55:09.678Z,16.40
2018-10-16T02:57:38.336Z,16.40
2018-10-16T03:00:07.320Z,16.40
2018-10-16T03:02:36.001Z,16.40
2018-10-16T03:05:04.828Z,16.50
2018-10-16T03:07:33.503Z,16.50
2018-10-16T03:10:02.176Z,16.40
2018-10-16T03:12:30.955Z,16.40
2018-10-16T03:14:59.605Z,16.50
2018-10-16T03:17:28.267Z,16.50
2018-10-16T03:19:56.896Z,16.40
2018-10-16T03:22:25.559Z,16.40
2018-10-16T03:24:54.236Z,16.40
2018-10-16T03:27:22.860Z,16.40
2018-10-16T03:29:51.518Z,16.40
2018-10-16T03:32:20.192Z,16.40
2018-10-16T03:34:48.872Z,16.40
2018-10-16T03:37:17.522Z,16.40
2018-10-16T03:39:46.189Z,16.40
2018-10-16T03:42:14.815Z,16.40
2018-10-16T03:44:43.472Z,16.30
2018-10-16T03:47:12.116Z,16.40
2018-10-16T03:49:40.771Z,16.40
2018-10-16T03:52:09.451Z,16.40
2018-10-16T03:54:38.120Z,16.40
2018-10-16T03:57:06.925Z,16.40
2018-10-16T03:59:35.618Z,16.40
2018-10-16T04:02:04.556Z,16.40
2018-10-16T04:04:33.229Z,16.40
2018-10-16T04:07:01.880Z,16.40
2018-10-16T04:09:30.548Z,16.40
2018-10-16T04:11:59.173Z,16.40
2018-10-16T04:14:27.887Z,16.40
2018-10-16T04:16:56.597Z,16.40
2018-10-16T04:19:25.304Z,16.40
2018-10-16T04:21:53.987Z,16.40
2018-10-16T04:24:22.635Z,16.30
2018-10-16T04:26:51.304Z,16.30
2018-10-16T04:29:19.993Z,16.30
2018-10-16T04:31:48.660Z,16.30
2018-10-16T04:34:17.256Z,16.30
2018-10-16T04:36:45.863Z,16.30
2018-10-16T04:39:14.915Z,16.30
2018-10-16T04:41:43.700Z,16.30
2018-10-16T04:44:12.302Z,16.20
2018-10-16T04:46:40.961Z,16.30
2018-10-16T04:49:09.585Z,16.20
2018-10-16T04:51:38.245Z,16.30
2018-10-16T04:54:06.860Z,16.20
2018-10-16T04:56:35.519Z,16.20
2018-10-16T04:59:04.212Z,16.20
2018-10-16T05:01:32.847Z,16.20
2018-10-16T05:04:01.596Z,16.20
2018-10-16T05:06:30.212Z,16.20
2018-10-16T05:08:58.899Z,16.20
2018-10-16T05:11:27.744Z,16.20
2018-10-16T05:13:56.364Z,16.20
2018-10-16T05:16:24.985Z,16.20
2018-10-16T05:18:53.656Z,16.30
2018-10-16T05:21:22.288Z,16.30
2018-10-16T05:23:50.944Z,16.20
2018-10-16T05:26:23.675Z,16.30
2018-10-16T05:28:52.288Z,16.20
2018-10-16T05:31:20.980Z,16.30
2018-10-16T05:33:49.585Z,16.30
2018-10-16T05:36:18.216Z,16.30
2018-10-16T05:38:46.882Z,16.40
2018-10-16T05:41:15.536Z,16.40
2018-10-16T05:43:44.197Z,16.40
2018-10-16T05:46:12.855Z,16.40
2018-10-16T05:48:41.484Z,16.40
2018-10-16T05:51:10.601Z,16.40
2018-10-16T05:53:39.347Z,16.40
2018-10-16T05:56:07.981Z,16.50
2018-10-16T05:58:36.621Z,16.50
2018-10-16T06:01:05.564Z,16.50
2018-10-16T06:03:34.299Z,16.50
2018-10-16T06:06:02.922Z,16.50
2018-10-16T06:08:31.555Z,16.50
2018-10-16T06:11:00.313Z,16.40
2018-10-16T06:13:28.872Z,16.40
2018-10-16T06:15:57.576Z,16.40
2018-10-16T06:18:26.176Z,16.40
2018-10-16T06:20:54.807Z,16.40
2018-10-16T06:23:23.412Z,16.40
2018-10-16T06:25:52.011Z,16.40
2018-10-16T06:28:22.880Z,16.40
2018-10-16T06:30:51.603Z,16.50
2018-10-16T06:33:34.978Z,16.50
2018-10-16T06:36:03.618Z,16.50
2018-10-16T06:38:32.244Z,16.50
2018-10-16T06:41:01.239Z,16.50
2018-10-16T06:43:29.716Z,16.50
2018-10-16T06:45:58.372Z,16.50
2018-10-16T06:48:27.336Z,16.50
2018-10-16T06:50:55.726Z,16.60
2018-10-16T06:53:24.487Z,16.50
2018-10-16T06:55:53.143Z,16.50
2018-10-16T06:58:21.763Z,16.50
2018-10-16T07:00:50.390Z,16.50
2018-10-16T07:03:19.125Z,16.50
2018-10-16T07:05:47.777Z,16.50
2018-10-16T07:08:16.451Z,16.60
2018-10-16T07:10:45.092Z,16.50
2018-10-16T07:13:13.720Z,16.50
2018-10-16T07:15:42.312Z,16.50
2018-10-16T07:18:10.966Z,16.50
2018-10-16T07:20:39.599Z,16.50
2018-10-16T07:23:08.206Z,16.60
2018-10-16T07:25:46.109Z,16.60
2018-10-16T07:28:14.844Z,16.60
2018-10-16T07:30:44.106Z,16.60
2018-10-16T07:33:13.272Z,16.60
2018-10-16T07:35:43.367Z,16.70
2018-10-16T07:38:12.335Z,16.70
2018-10-16T07:40:40.975Z,16.70
2018-10-16T07:43:09.622Z,16.70
2018-10-16T07:45:38.292Z,16.80
2018-10-16T07:48:07.649Z,16.80
2018-10-16T07:50:36.432Z,16.90
2018-10-16T07:53:05.383Z,16.90
2018-10-16T07:55:34.047Z,16.90
2018-10-16T07:58:02.876Z,16.90
2018-10-16T08:00:31.512Z,17.00
2018-10-16T08:03:00.208Z,17.00
2018-10-16T08:05:28.917Z,17.10
2018-10-16T08:07:57.548Z,17.10
2018-10-16T08:10:26.229Z,17.10
2018-10-16T08:12:54.856Z,17.20
2018-10-16T08:15:23.529Z,17.20
2018-10-16T08:17:52.187Z,17.20
2018-10-16T08:20:20.889Z,17.20
2018-10-16T08:22:49.523Z,17.20
2018-10-16T08:25:18.201Z,17.20
2018-10-16T08:27:46.873Z,17.30
2018-10-16T08:30:15.658Z,17.30
2018-10-16T08:32:44.296Z,17.30
2018-10-16T08:35:12.916Z,17.30
2018-10-16T08:39:48.855Z,17.40
2018-10-16T08:43:26.505Z,17.30
2018-10-16T08:46:06.119Z,17.30
2018-10-16T08:48:45.792Z,17.20
2018-10-16T08:51:25.595Z,17.20
2018-10-16T08:53:54.432Z,17.20
2018-10-16T08:56:23.056Z,17.30
2018-10-16T08:58:51.696Z,17.30
2018-10-16T09:01:20.393Z,17.30
2018-10-16T09:03:49.021Z,17.30
2018-10-16T09:06:17.664Z,17.30
2018-10-16T09:08:46.332Z,17.30
2018-10-16T09:11:15.028Z,17.30
2018-10-16T09:13:43.692Z,17.30
2018-10-16T09:16:12.325Z,17.30
2018-10-16T09:18:41.365Z,17.40
2018-10-16T09:21:10.033Z,17.40
2018-10-16T09:23:38.664Z,17.40
2018-10-16T09:26:07.358Z,17.40
2018-10-16T09:28:36.049Z,17.40
2018-10-16T09:31:04.805Z,17.30
2018-10-16T09:33:33.471Z,17.30
2018-10-16T09:36:02.125Z,17.30
2018-10-16T09:38:30.793Z,17.30
2018-10-16T09:40:59.484Z,17.30
2018-10-16T09:43:29.441Z,17.30
2018-10-16T09:45:58.277Z,17.30
2018-10-16T09:48:26.941Z,17.30
2018-10-16T09:50:55.672Z,17.30
2018-10-16T09:53:24.576Z,17.30
2018-10-16T09:55:53.183Z,17.40
2018-10-16T09:58:21.824Z,17.30
2018-10-16T10:00:55.959Z,17.40
2018-10-16T10:03:24.574Z,17.40
2018-10-16T10:05:53.236Z,17.40
2018-10-16T10:08:21.972Z,17.40
2018-10-16T10:10:50.638Z,17.40
2018-10-16T10:13:19.296Z,17.40
2018-10-16T10:15:48.020Z,17.40
2018-10-16T10:18:16.680Z,17.50
2018-10-16T10:20:45.343Z,17.50
2018-10-16T10:23:14.025Z,17.40
2018-10-16T10:25:42.657Z,17.50
2018-10-16T10:28:11.323Z,17.50
2018-10-16T10:30:39.955Z,17.50
2018-10-16T10:33:08.593Z,17.50
2018-10-16T10:35:37.305Z,17.60
2018-10-16T10:38:05.924Z,17.60
2018-10-16T10:40:34.569Z,17.60
2018-10-16T10:43:03.252Z,17.60
2018-10-16T10:45:31.901Z,17.70
2018-10-16T10:48:00.537Z,17.70
2018-10-16T10:50:29.416Z,17.70
2018-10-16T10:52:57.843Z,17.80
2018-10-16T10:55:26.480Z,17.80
2018-10-16T10:57:55.156Z,17.80
2018-10-16T11:00:23.802Z,17.80
2018-10-16T11:02:52.556Z,17.80
2018-10-16T11:05:21.186Z,17.80
2018-10-16T11:07:49.807Z,17.80
2018-10-16T11:10:18.419Z,17.80
2018-10-16T11:12:47.093Z,17.90
2018-10-16T11:15:15.849Z,17.90
2018-10-16T11:17:44.445Z,17.80
2018-10-16T11:20:13.608Z,17.80
2018-10-16T11:22:42.491Z,17.80
2018-10-16T11:25:11.601Z,17.80
2018-10-16T11:27:40.255Z,17.80
2018-10-16T11:30:11.976Z,17.80
2018-10-16T11:32:40.939Z,17.80
2018-10-16T11:35:10.712Z,17.70
2018-10-16T11:37:39.724Z,17.70
2018-10-16T11:40:08.840Z,17.70
2018-10-16T11:42:37.491Z,17.70
2018-10-16T11:45:07.097Z,17.70
2018-10-16T11:47:36.315Z,17.80
2018-10-16T11:50:05.655Z,17.80
2018-10-16T11:52:34.307Z,17.80
2018-10-16T11:55:03.023Z,17.80
2018-10-16T11:57:31.643Z,17.80
2018-10-16T12:00:00.266Z,17.80
2018-10-16T12:02:29.049Z,17.90
2018-10-16T12:04:57.678Z,17.90
2018-10-16T12:07:26.366Z,18.00
2018-10-16T12:09:55.047Z,18.00
2018-10-16T12:12:23.673Z,18.00
2018-10-16T12:14:52.308Z,18.00
2018-10-16T12:17:30.769Z,18.10
2018-10-16T12:20:06.497Z,18.20
2018-10-16T12:22:35.085Z,18.20
2018-10-16T12:25:04.128Z,18.30
2018-10-16T12:27:32.853Z,18.40
2018-10-16T12:30:01.505Z,18.40
2018-10-16T12:32:30.132Z,18.50
2018-10-16T12:34:58.870Z,18.60
2018-10-16T12:37:27.559Z,18.70
2018-10-16T12:39:56.273Z,18.80
2018-10-16T12:42:24.954Z,18.80
2018-10-16T12:44:53.646Z,18.80
2018-10-16T12:47:22.300Z,18.90
2018-10-16T12:49:54.137Z,18.90
2018-10-16T12:52:22.844Z,18.90
2018-10-16T12:54:51.472Z,18.80
2018-10-16T12:57:20.240Z,18.80
2018-10-16T12:59:48.854Z,18.80
2018-10-16T13:02:17.488Z,18.70
2018-10-16T13:04:46.197Z,18.70
2018-10-16T13:07:22.293Z,18.70
2018-10-16T13:09:51.054Z,18.70
2018-10-16T13:12:19.698Z,18.80
2018-10-16T13:14:48.357Z,18.90
2018-10-16T13:17:17.038Z,19.00
2018-10-16T13:19:45.690Z,19.00
2018-10-16T13:22:14.344Z,19.00
2018-10-16T13:24:43.028Z,19.10
2018-10-16T13:27:11.660Z,19.00
2018-10-16T13:29:40.418Z,19.00
2018-10-16T13:32:09.050Z,19.00
2018-10-16T13:34:37.645Z,19.00
2018-10-16T13:37:06.267Z,18.90
2018-10-16T13:39:34.916Z,19.00
2018-10-16T13:42:03.608Z,19.00
2018-10-16T13:44:32.242Z,19.00
2018-10-16T13:47:00.878Z,19.00
2018-10-16T13:49:29.515Z,19.10
2018-10-16T13:51:58.174Z,19.10
2018-10-16T13:54:26.841Z,19.10
2018-10-16T13:56:55.490Z,19.10
2018-10-16T13:59:24.149Z,19.10
2018-10-16T14:01:52.804Z,19.10
2018-10-16T14:04:21.510Z,19.10
2018-10-16T14:06:50.152Z,19.10
2018-10-16T14:09:18.812Z,19.10
2018-10-16T14:11:47.454Z,19.10
2018-10-16T14:14:16.187Z,19.00
2018-10-16T14:16:44.804Z,19.00
2018-10-16T14:19:13.445Z,19.00
2018-10-16T14:21:42.116Z,19.00
2018-10-16T14:24:10.767Z,19.00
2018-10-16T14:26:39.496Z,19.00
2018-10-16T14:29:08.109Z,19.00
2018-10-16T14:31:36.763Z,19.00
2018-10-16T14:34:05.423Z,19.10
2018-10-16T14:36:34.055Z,19.00
2018-10-16T14:39:02.923Z,19.10
2018-10-16T14:41:31.611Z,19.00
2018-10-16T14:44:00.312Z,19.00
2018-10-16T14:46:28.956Z,19.00
2018-10-16T14:48:57.590Z,19.10
2018-10-16T14:51:26.264Z,19.10
2018-10-16T14:53:54.893Z,19.10
2018-10-16T14:56:23.716Z,19.00
2018-10-16T14:58:52.492Z,19.00
2018-10-16T15:01:21.160Z,19.00
2018-10-16T15:03:49.828Z,18.90
2018-10-16T15:06:18.489Z,18.90
2018-10-16T15:08:47.196Z,18.90
2018-10-16T15:11:15.837Z,18.90
2018-10-16T15:13:44.671Z,19.00
2018-10-16T15:16:14.225Z,18.90
2018-10-16T15:18:42.860Z,18.90
2018-10-16T15:21:11.493Z,18.90
2018-10-16T15:23:40.166Z,18.90
2018-10-16T15:26:08.904Z,18.90
2018-10-16T15:28:37.517Z,18.90
2018-10-16T15:31:06.166Z,18.90
2018-10-16T15:33:34.792Z,18.80
2018-10-16T15:36:03.522Z,18.80
2018-10-16T15:38:32.136Z,18.90
2018-10-16T15:41:00.784Z,18.90
2018-10-16T15:43:29.432Z,18.90
2018-10-16T15:45:58.089Z,18.80
2018-10-16T15:48:26.736Z,18.90
2018-10-16T15:50:55.428Z,18.90
2018-10-16T15:53:24.073Z,18.80
2018-10-16T15:55:52.788Z,18.80
2018-10-16T15:58:21.433Z,19.30
2018-10-16T16:00:50.076Z,18.80
2018-10-16T16:03:18.708Z,18.60
2018-10-16T16:05:47.956Z,18.70
2018-10-16T16:08:16.585Z,18.60
2018-10-16T16:10:45.233Z,18.60
2018-10-16T16:13:13.889Z,18.60
2018-10-16T16:15:42.520Z,18.60
2018-10-16T16:18:11.393Z,18.60
2018-10-16T16:20:39.954Z,18.50
2018-10-16T16:23:08.648Z,18.50
2018-10-16T16:25:37.330Z,18.50
2018-10-16T16:28:06.074Z,18.40
2018-10-16T16:30:34.676Z,18.40
2018-10-16T16:33:03.308Z,18.40
2018-10-16T16:35:31.935Z,18.40
2018-10-16T16:38:00.717Z,18.40
2018-10-16T16:40:29.293Z,18.40
2018-10-16T16:42:57.939Z,18.40
2018-10-16T16:45:26.577Z,18.30
2018-10-16T16:47:55.191Z,18.30
2018-10-16T16:50:23.863Z,18.30
2018-10-16T16:52:52.517Z,18.30
2018-10-16T16:55:21.163Z,18.30
2018-10-16T16:57:49.804Z,18.30
2018-10-16T17:00:18.426Z,18.30
2018-10-16T17:02:47.113Z,18.30
2018-10-16T17:05:15.770Z,18.20
2018-10-16T17:07:44.825Z,18.20
2018-10-16T17:10:13.530Z,18.20
2018-10-16T17:12:42.187Z,18.10
2018-10-16T17:15:15.506Z,18.10
2018-10-16T17:17:45.027Z,18.10
2018-10-16T17:20:13.653Z,18.00
2018-10-16T17:22:42.354Z,18.00
2018-10-16T17:25:12.770Z,18.00
2018-10-16T17:27:41.560Z,18.00
2018-10-16T17:30:13.126Z,17.90
2018-10-16T17:32:42.424Z,17.80
2018-10-16T17:35:11.741Z,17.80
2018-10-16T17:37:41.140Z,17.80
2018-10-16T17:40:11.737Z,17.80
2018-10-16T17:42:40.452Z,17.70
2018-10-16T17:45:11.139Z,17.70
2018-10-16T17:47:39.855Z,17.70
2018-10-16T17:50:11.096Z,17.60
2018-10-16T17:52:40.099Z,17.50
2018-10-16T17:55:09.549Z,17.50
2018-10-16T17:57:38.380Z,17.50
2018-10-16T18:00:09.644Z,17.40
2018-10-16T18:02:38.320Z,17.40
2018-10-16T18:05:07.048Z,17.30
2018-10-16T18:07:35.731Z,17.30
2018-10-16T18:10:04.537Z,17.30
2018-10-16T18:12:33.196Z,17.30
2018-10-16T18:15:01.887Z,17.30
2018-10-16T18:17:30.515Z,17.30
2018-10-16T18:19:59.179Z,17.30
2018-10-16T18:22:27.804Z,17.20
2018-10-16T18:24:56.415Z,17.20
2018-10-16T18:27:25.069Z,17.10
2018-10-16T18:29:57.758Z,17.10
2018-10-16T18:32:29.963Z,17.10
2018-10-16T18:35:02.240Z,17.00
2018-10-16T18:37:40.429Z,17.00
2018-10-16T18:40:10.364Z,17.00
2018-10-16T18:42:39.472Z,17.00
2018-10-16T18:45:13.168Z,17.00
2018-10-16T18:47:43.019Z,17.00
2018-10-16T18:50:14.320Z,17.00
2018-10-16T18:52:43.807Z,17.00
2018-10-16T18:55:13.659Z,17.10
2018-10-16T18:57:42.411Z,17.10
2018-10-16T19:00:13.196Z,17.10
2018-10-16T19:02:42.393Z,17.10
2018-10-16T19:05:11.989Z,17.00
2018-10-16T19:07:40.949Z,17.00
2018-10-16T19:10:11.084Z,17.00
2018-10-16T19:12:41.333Z,16.90
2018-10-16T19:15:23.555Z,16.90
2018-10-16T19:18:05.098Z,16.90
2018-10-16T19:20:33.801Z,16.80
2018-10-16T19:23:05.613Z,16.80
2018-10-16T19:25:47.580Z,16.70
2018-10-16T19:28:33.415Z,16.70
2018-10-16T19:31:22.323Z,16.70
2018-10-16T19:33:51.388Z,16.70
2018-10-16T19:36:40.489Z,16.60
2018-10-16T19:39:31.066Z,16.60
2018-10-16T19:42:01.422Z,16.60
2018-10-16T19:44:30.159Z,16.60
2018-10-16T19:46:59.825Z,16.60
2018-10-16T19:49:38.388Z,16.60
2018-10-16T19:52:35.934Z,16.60
2018-10-16T19:55:05.138Z,16.60
2018-10-16T20:00:34.950Z,16.60
2018-10-16T20:03:03.843Z,16.60
2018-10-16T20:05:32.610Z,16.60
2018-10-16T20:08:01.524Z,16.60
2018-10-16T20:10:32.262Z,16.60
2018-10-16T20:13:01.532Z,16.60
2018-10-16T20:15:30.194Z,16.60
2018-10-16T20:17:59.721Z,16.70
2018-10-16T20:20:28.618Z,16.70
2018-10-16T20:22:57.470Z,16.70
2018-10-16T20:25:49.638Z,16.70
2018-10-16T20:41:26.280Z,16.60
2018-10-16T20:43:55.036Z,16.60
2018-10-16T20:46:24.443Z,16.60
2018-10-16T20:48:53.235Z,16.60
2018-10-16T20:51:21.978Z,16.60
2018-10-16T20:53:50.818Z,16.70
2018-10-16T20:56:19.651Z,16.70
2018-10-16T20:58:48.419Z,16.70
2018-10-16T21:01:17.413Z,16.70
2018-10-16T21:03:49.230Z,16.70
2018-10-16T21:06:18.247Z,16.70
2018-10-16T21:08:46.883Z,16.70
2018-10-16T21:11:15.646Z,16.70
2018-10-16T21:13:44.833Z,16.70
2018-10-16T21:16:13.556Z,16.70
2018-10-16T21:18:42.297Z,16.70
2018-10-16T21:21:11.088Z,16.70
2018-10-16T21:23:39.815Z,16.70
2018-10-16T21:26:09.117Z,16.70
2018-10-16T21:28:37.907Z,16.70
2018-10-16T21:31:06.753Z,16.70
2018-10-16T21:33:35.568Z,16.60
2018-10-16T21:36:07.071Z,16.60
2018-10-16T21:38:35.813Z,16.60
2018-10-16T21:41:04.553Z,16.60
2018-10-16T21:43:33.225Z,16.60
2018-10-16T21:46:01.929Z,16.60
2018-10-16T21:48:30.571Z,16.60
2018-10-16T21:50:59.216Z,16.60
2018-10-16T21:53:27.848Z,16.50
2018-10-16T21:55:56.537Z,16.50
2018-10-16T21:58:25.229Z,16.40
2018-10-16T22:00:59.504Z,16.40
2018-10-16T22:03:28.373Z,16.40
2018-10-16T22:05:57.032Z,16.30
2018-10-16T22:08:25.688Z,16.30
2018-10-16T22:10:54.411Z,16.20
2018-10-16T22:13:23.060Z,16.20
2018-10-16T22:15:51.684Z,16.20
2018-10-16T22:18:20.335Z,16.20
2018-10-16T22:20:48.980Z,16.10
2018-10-16T22:23:17.644Z,16.10
2018-10-16T22:25:46.320Z,16.10
2018-10-16T22:28:15.036Z,16.10
2018-10-16T22:30:43.663Z,16.10
2018-10-16T22:33:12.829Z,16.00
2018-10-16T22:35:41.492Z,16.00
2018-10-16T22:38:10.828Z,16.00
2018-10-16T22:40:41.234Z,16.00
2018-10-16T22:43:10.552Z,16.00
2018-10-16T22:45:39.207Z,16.00
2018-10-16T22:48:07.896Z,15.90
2018-10-16T22:50:36.547Z,15.90
2018-10-16T22:53:05.292Z,15.90
2018-10-16T22:55:33.960Z,15.90
2018-10-16T22:58:03.084Z,15.90
2018-10-16T23:00:31.724Z,15.80
2018-10-16T23:03:01.808Z,15.80
2018-10-16T23:05:30.525Z,15.80
2018-10-16T23:07:59.224Z,15.70
2018-10-16T23:10:27.966Z,15.70
2018-10-16T23:12:59.695Z,15.70
2018-10-16T23:15:29.320Z,15.60
2018-10-16T23:17:57.980Z,15.60
2018-10-16T23:20:26.767Z,15.60
2018-10-16T23:22:55.737Z,15.60
2018-10-16T23:25:24.464Z,15.60
2018-10-16T23:27:53.146Z,15.60
2018-10-16T23:30:21.828Z,15.60
2018-10-16T23:32:50.534Z,15.70
2018-10-16T23:35:19.189Z,15.90
2018-10-16T23:37:47.955Z,15.70
2018-10-16T23:40:16.600Z,15.70
2018-10-16T23:42:45.683Z,15.60
2018-10-16T23:45:14.324Z,15.60
2018-10-16T23:47:43.003Z,15.70
2018-10-16T23:50:11.684Z,15.60
2018-10-16T23:52:40.360Z,15.60
2018-10-16T23:55:10.078Z,15.70
2018-10-16T23:57:38.803Z,15.70
